Chippewa Valley Regional Airport
KEAU : now visible

Airfield :











YOU CAN JOIN US ON...

 
LOGIN :

Register | Disclaimer

   EN    FR    IT 

 









Legend :    VFR   Marginal VFR   IFR   Intensive IFR   Very Intensive IFR
Visi :
Ceiling :
>= 8 km
>= 3000ft
5 to 8 km
1000 to 3000 ft
1500m to 5 km
500 to 1000 ft
800 to 1500m
200 to 500 ft
< 800m
< 200 ft
Symbols :   Thunderstorms  Fog  Heavy snow  Heavy precipitations  Wind > 20 kt






- Airport Elevation : 913 ft
- IATA code : EAU


KEAU - Chippewa Valley Regional

CURRENT METAR :
  • 160017Z 32005KT 3SM -SN BR BKN007 OVC019 01/00 A2967 RMK AO2 P0001 T00110000

EXPIRED METARs :
  • 152356Z 34005KT 4SM -SN BR FEW008 OVC021 01/00 A2966 RMK AO2 UPB12E20RAB20E34SNB34 SLP054 P0002 60002 T00110000 10028 20011 51020
  • 152256Z 35007KT 10SM OVC023 02/00 A2965 RMK AO2 SLP048 T00220000
  • 152156Z 36005KT 9SM OVC016 02/00 A2963 RMK AO2 SLP042 T00220000

TAF KEAU
Valid from the 16 at 00:00 until the 17 at 00:00 UTC


152332Z 1600/1624 35007KT 6SM -DZ BR BKN015 OVC022
TEMPO 1600/1604 SCT015 OVC025
FM160800 34007KT P6SM OVC012
KZMP FIR / North America



MET'MAP, your aeronautical weather chart ! - Copyright ORBIFLY December 2007 - Disclaimer

ORBIFLY MET'MAP TEAM :

Programming & Development : Alexandra Zaïnal
Concept & original design : Baudouin d'Aumeries
Assistance for programming : Marc-Olivier Méhu
Technical & hardware support : Manuel Goepfert

Contact : metmap@orbifly.com




SOURCES & CREDITS :

   NOAA       Earth
Advisory